sensor_id;sensor_type;location;lat;lon;timestamp;temperature;humidity
29211;DHT22;16250;49.932;10.980;2022-12-31T00:00:59;8.80;99.90
29211;DHT22;16250;49.932;10.980;2022-12-31T00:03:25;8.80;99.90
29211;DHT22;16250;49.932;10.980;2022-12-31T00:05:50;8.70;99.90
29211;DHT22;16250;49.932;10.980;2022-12-31T00:08:16;8.70;99.90
29211;DHT22;16250;49.932;10.980;2022-12-31T00:10:42;8.80;99.90
29211;DHT22;16250;49.932;10.980;2022-12-31T00:13:11;8.80;99.90
29211;DHT22;16250;49.932;10.980;2022-12-31T00:15:39;8.80;99.90
29211;DHT22;16250;49.932;10.980;2022-12-31T00:18:05;8.80;99.90
29211;DHT22;16250;49.932;10.980;2022-12-31T00:20:31;8.90;99.90
29211;DHT22;16250;49.932;10.980;2022-12-31T00:22:57;8.90;99.90
29211;DHT22;16250;49.932;10.980;2022-12-31T00:25:22;8.90;99.90
29211;DHT22;16250;49.932;10.980;2022-12-31T00:27:48;9.00;99.90
29211;DHT22;16250;49.932;10.980;2022-12-31T00:30:14;9.00;99.90
29211;DHT22;16250;49.932;10.980;2022-12-31T00:32:39;9.10;99.90
29211;DHT22;16250;49.932;10.980;2022-12-31T00:35:05;9.10;99.90
29211;DHT22;16250;49.932;10.980;2022-12-31T00:37:31;9.10;99.90
29211;DHT22;16250;49.932;10.980;2022-12-31T00:39:56;9.10;99.90
29211;DHT22;16250;49.932;10.980;2022-12-31T00:42:22;9.10;99.90
29211;DHT22;16250;49.932;10.980;2022-12-31T00:44:48;9.20;99.90
29211;DHT22;16250;49.932;10.980;2022-12-31T00:47:13;9.10;99.90
29211;DHT22;16250;49.932;10.980;2022-12-31T00:49:39;9.20;99.90
29211;DHT22;16250;49.932;10.980;2022-12-31T00:52:05;9.10;99.90
29211;DHT22;16250;49.932;10.980;2022-12-31T00:54:30;9.20;99.90
29211;DHT22;16250;49.932;10.980;2022-12-31T00:56:56;9.30;99.90
29211;DHT22;16250;49.932;10.980;2022-12-31T00:59:21;9.40;99.90
29211;DHT22;16250;49.932;10.980;2022-12-31T01:01:47;9.30;99.90
29211;DHT22;16250;49.932;10.980;2022-12-31T01:04:17;9.40;99.90
29211;DHT22;16250;49.932;10.980;2022-12-31T01:06:43;9.40;99.90
29211;DHT22;16250;49.932;10.980;2022-12-31T01:09:11;9.50;99.90
29211;DHT22;16250;49.932;10.980;2022-12-31T01:11:36;9.50;99.90
29211;DHT22;16250;49.932;10.980;2022-12-31T01:14:15;9.50;99.90
29211;DHT22;16250;49.932;10.980;2022-12-31T01:16:44;9.40;99.90
29211;DHT22;16250;49.932;10.980;2022-12-31T01:19:12;9.50;99.90
29211;DHT22;16250;49.932;10.980;2022-12-31T01:21:39;9.50;99.90
29211;DHT22;16250;49.932;10.980;2022-12-31T01:24:06;9.50;99.90
29211;DHT22;16250;49.932;10.980;2022-12-31T01:26:31;9.60;99.90
29211;DHT22;16250;49.932;10.980;2022-12-31T01:28:57;9.60;99.90
29211;DHT22;16250;49.932;10.980;2022-12-31T01:31:24;9.60;99.90
29211;DHT22;16250;49.932;10.980;2022-12-31T01:33:50;9.70;99.90
29211;DHT22;16250;49.932;10.980;2022-12-31T01:36:22;9.70;99.90
29211;DHT22;16250;49.932;10.980;2022-12-31T01:38:48;9.60;99.90
29211;DHT22;16250;49.932;10.980;2022-12-31T01:41:17;9.60;99.90
29211;DHT22;16250;49.932;10.980;2022-12-31T01:43:51;9.60;99.90
29211;DHT22;16250;49.932;10.980;2022-12-31T01:49:03;9.60;99.90
29211;DHT22;16250;49.932;10.980;2022-12-31T01:51:32;9.60;99.90
29211;DHT22;16250;49.932;10.980;2022-12-31T01:54:00;9.60;99.90
29211;DHT22;16250;49.932;10.980;2022-12-31T01:56:26;9.60;99.90
29211;DHT22;16250;49.932;10.980;2022-12-31T01:58:54;9.70;99.90
29211;DHT22;16250;49.932;10.980;2022-12-31T02:01:25;9.60;99.90
29211;DHT22;16250;49.932;10.980;2022-12-31T02:03:52;9.60;99.90
29211;DHT22;16250;49.932;10.980;2022-12-31T02:06:24;9.70;99.90
29211;DHT22;16250;49.932;10.980;2022-12-31T02:08:53;9.70;99.90
29211;DHT22;16250;49.932;10.980;2022-12-31T02:11:30;9.70;99.90
29211;DHT22;16250;49.932;10.980;2022-12-31T02:14:02;9.60;99.90
29211;DHT22;16250;49.932;10.980;2022-12-31T02:16:45;9.70;99.90
29211;DHT22;16250;49.932;10.980;2022-12-31T02:19:45;9.70;99.90
29211;DHT22;16250;49.932;10.980;2022-12-31T02:30:20;9.70;99.90
29211;DHT22;16250;49.932;10.980;2022-12-31T02:35:47;9.70;99.90
29211;DHT22;16250;49.932;10.980;2022-12-31T02:38:29;9.70;99.90
29211;DHT22;16250;49.932;10.980;2022-12-31T02:40:56;9.70;99.90
29211;DHT22;16250;49.932;10.980;2022-12-31T02:43:23;9.80;99.90
29211;DHT22;16250;49.932;10.980;2022-12-31T02:46:22;9.70;99.90
29211;DHT22;16250;49.932;10.980;2022-12-31T02:51:53;9.70;99.90
29211;DHT22;16250;49.932;10.980;2022-12-31T02:57:39;9.80;99.90
29211;DHT22;16250;49.932;10.980;2022-12-31T03:00:10;9.80;99.90
29211;DHT22;16250;49.932;10.980;2022-12-31T03:02:54;9.80;99.90
29211;DHT22;16250;49.932;10.980;2022-12-31T03:05:24;9.80;99.90
29211;DHT22;16250;49.932;10.980;2022-12-31T03:07:50;9.80;99.90
29211;DHT22;16250;49.932;10.980;2022-12-31T03:10:16;9.80;99.90
29211;DHT22;16250;49.932;10.980;2022-12-31T03:12:43;9.90;99.90
29211;DHT22;16250;49.932;10.980;2022-12-31T03:15:18;9.80;99.90
29211;DHT22;16250;49.932;10.980;2022-12-31T03:23:21;9.90;99.90
29211;DHT22;16250;49.932;10.980;2022-12-31T03:25:47;9.90;99.90
29211;DHT22;16250;49.932;10.980;2022-12-31T03:28:16;10.00;99.90
29211;DHT22;16250;49.932;10.980;2022-12-31T03:30:44;10.00;99.90
29211;DHT22;16250;49.932;10.980;2022-12-31T03:33:10;10.10;99.90
29211;DHT22;16250;49.932;10.980;2022-12-31T03:35:37;10.00;99.90
29211;DHT22;16250;49.932;10.980;2022-12-31T03:38:04;10.10;99.90
29211;DHT22;16250;49.932;10.980;2022-12-31T03:40:30;10.10;99.90
29211;DHT22;16250;49.932;10.980;2022-12-31T03:42:56;10.10;99.90
29211;DHT22;16250;49.932;10.980;2022-12-31T03:45:22;10.10;99.90
29211;DHT22;16250;49.932;10.980;2022-12-31T03:47:48;10.20;99.90
29211;DHT22;16250;49.932;10.980;2022-12-31T03:50:15;10.20;99.90
29211;DHT22;16250;49.932;10.980;2022-12-31T03:52:41;10.10;99.90
29211;DHT22;16250;49.932;10.980;2022-12-31T03:55:07;10.20;99.90
29211;DHT22;16250;49.932;10.980;2022-12-31T03:57:34;10.20;99.90
29211;DHT22;16250;49.932;10.980;2022-12-31T03:59:59;10.20;99.90
29211;DHT22;16250;49.932;10.980;2022-12-31T04:02:25;10.40;99.90
29211;DHT22;16250;49.932;10.980;2022-12-31T04:04:51;10.30;99.90
29211;DHT22;16250;49.932;10.980;2022-12-31T04:07:16;10.20;99.90
29211;DHT22;16250;49.932;10.980;2022-12-31T04:09:42;10.30;99.90
29211;DHT22;16250;49.932;10.980;2022-12-31T04:12:07;10.20;99.90
29211;DHT22;16250;49.932;10.980;2022-12-31T04:14:33;10.30;99.90
29211;DHT22;16250;49.932;10.980;2022-12-31T04:16:59;10.30;99.90
29211;DHT22;16250;49.932;10.980;2022-12-31T04:19:24;10.30;99.90
29211;DHT22;16250;49.932;10.980;2022-12-31T04:21:50;10.30;99.90
29211;DHT22;16250;49.932;10.980;2022-12-31T04:24:15;10.40;99.90
29211;DHT22;16250;49.932;10.980;2022-12-31T04:26:41;10.30;99.90
29211;DHT22;16250;49.932;10.980;2022-12-31T04:29:08;10.30;99.90
29211;DHT22;16250;49.932;10.980;2022-12-31T04:31:34;10.20;99.90
29211;DHT22;16250;49.932;10.980;2022-12-31T04:33:59;10.30;99.90
29211;DHT22;16250;49.932;10.980;2022-12-31T04:36:25;10.20;99.90
29211;DHT22;16250;49.932;10.980;2022-12-31T04:38:51;10.30;99.90
29211;DHT22;16250;49.932;10.980;2022-12-31T04:41:16;10.30;99.90
29211;DHT22;16250;49.932;10.980;2022-12-31T04:43:55;10.30;99.90
29211;DHT22;16250;49.932;10.980;2022-12-31T04:46:30;10.20;99.90
29211;DHT22;16250;49.932;10.980;2022-12-31T04:48:56;10.30;99.90
29211;DHT22;16250;49.932;10.980;2022-12-31T04:51:23;10.30;99.90
29211;DHT22;16250;49.932;10.980;2022-12-31T04:53:49;10.30;99.90
29211;DHT22;16250;49.932;10.980;2022-12-31T04:56:15;10.30;99.90
29211;DHT22;16250;49.932;10.980;2022-12-31T04:58:41;10.30;99.90
29211;DHT22;16250;49.932;10.980;2022-12-31T05:01:07;10.40;99.90
29211;DHT22;16250;49.932;10.980;2022-12-31T05:03:34;10.40;99.90
29211;DHT22;16250;49.932;10.980;2022-12-31T05:06:12;10.40;99.90
29211;DHT22;16250;49.932;10.980;2022-12-31T05:08:38;10.40;99.90
29211;DHT22;16250;49.932;10.980;2022-12-31T05:11:04;10.40;99.90
29211;DHT22;16250;49.932;10.980;2022-12-31T05:13:29;10.40;99.90
29211;DHT22;16250;49.932;10.980;2022-12-31T05:15:55;10.40;99.90
29211;DHT22;16250;49.932;10.980;2022-12-31T05:18:21;10.50;99.90
29211;DHT22;16250;49.932;10.980;2022-12-31T05:20:48;10.40;99.90
29211;DHT22;16250;49.932;10.980;2022-12-31T05:23:14;10.50;99.90
29211;DHT22;16250;49.932;10.980;2022-12-31T05:25:41;10.50;99.90
29211;DHT22;16250;49.932;10.980;2022-12-31T05:28:07;10.50;99.90
29211;DHT22;16250;49.932;10.980;2022-12-31T05:30:33;10.60;99.90
29211;DHT22;16250;49.932;10.980;2022-12-31T05:32:59;10.60;99.90
29211;DHT22;16250;49.932;10.980;2022-12-31T05:35:25;10.60;99.90
29211;DHT22;16250;49.932;10.980;2022-12-31T05:37:50;10.60;99.90
29211;DHT22;16250;49.932;10.980;2022-12-31T05:40:16;10.60;99.90
29211;DHT22;16250;49.932;10.980;2022-12-31T05:42:42;10.70;99.90
29211;DHT22;16250;49.932;10.980;2022-12-31T05:45:08;10.70;99.90
29211;DHT22;16250;49.932;10.980;2022-12-31T05:47:40;10.60;99.90
29211;DHT22;16250;49.932;10.980;2022-12-31T05:50:07;10.60;99.90
29211;DHT22;16250;49.932;10.980;2022-12-31T05:52:33;10.70;99.90
29211;DHT22;16250;49.932;10.980;2022-12-31T05:54:58;10.70;99.90
29211;DHT22;16250;49.932;10.980;2022-12-31T05:57:24;10.70;99.90
29211;DHT22;16250;49.932;10.980;2022-12-31T05:59:49;10.70;99.90
29211;DHT22;16250;49.932;10.980;2022-12-31T06:02:18;10.70;99.90
29211;DHT22;16250;49.932;10.980;2022-12-31T06:04:43;10.70;99.90
29211;DHT22;16250;49.932;10.980;2022-12-31T06:07:09;10.70;99.90
29211;DHT22;16250;49.932;10.980;2022-12-31T06:09:34;10.70;99.90
29211;DHT22;16250;49.932;10.980;2022-12-31T06:12:00;10.80;99.90
29211;DHT22;16250;49.932;10.980;2022-12-31T06:14:25;10.80;99.90
29211;DHT22;16250;49.932;10.980;2022-12-31T06:16:51;10.90;99.90
29211;DHT22;16250;49.932;10.980;2022-12-31T06:19:16;10.90;99.90
29211;DHT22;16250;49.932;10.980;2022-12-31T06:21:42;10.90;99.90
29211;DHT22;16250;49.932;10.980;2022-12-31T06:24:07;10.90;99.90
29211;DHT22;16250;49.932;10.980;2022-12-31T06:26:33;10.90;99.90
29211;DHT22;16250;49.932;10.980;2022-12-31T06:28:58;10.90;99.90
29211;DHT22;16250;49.932;10.980;2022-12-31T06:31:24;11.00;99.90
29211;DHT22;16250;49.932;10.980;2022-12-31T06:33:49;11.00;99.90
29211;DHT22;16250;49.932;10.980;2022-12-31T06:36:15;11.00;99.90
29211;DHT22;16250;49.932;10.980;2022-12-31T06:38:42;11.00;99.90
29211;DHT22;16250;49.932;10.980;2022-12-31T06:41:13;11.10;99.90
29211;DHT22;16250;49.932;10.980;2022-12-31T06:43:39;11.10;99.90
29211;DHT22;16250;49.932;10.980;2022-12-31T06:46:07;11.20;99.90
29211;DHT22;16250;49.932;10.980;2022-12-31T06:48:34;11.10;99.90
29211;DHT22;16250;49.932;10.980;2022-12-31T06:51:19;11.10;99.90
29211;DHT22;16250;49.932;10.980;2022-12-31T06:53:47;11.10;99.90
29211;DHT22;16250;49.932;10.980;2022-12-31T06:56:19;11.20;99.90
29211;DHT22;16250;49.932;10.980;2022-12-31T06:58:46;11.30;99.90
29211;DHT22;16250;49.932;10.980;2022-12-31T07:01:48;11.30;99.90
29211;DHT22;16250;49.932;10.980;2022-12-31T07:07:20;11.40;99.90
29211;DHT22;16250;49.932;10.980;2022-12-31T07:12:35;11.30;99.90
29211;DHT22;16250;49.932;10.980;2022-12-31T07:20:30;11.40;99.90
29211;DHT22;16250;49.932;10.980;2022-12-31T07:22:55;11.40;99.90
29211;DHT22;16250;49.932;10.980;2022-12-31T07:25:21;11.30;99.90
29211;DHT22;16250;49.932;10.980;2022-12-31T07:28:03;11.40;99.90
29211;DHT22;16250;49.932;10.980;2022-12-31T07:33:45;11.40;99.90
29211;DHT22;16250;49.932;10.980;2022-12-31T07:36:47;11.40;99.90
29211;DHT22;16250;49.932;10.980;2022-12-31T07:42:13;11.30;99.90
29211;DHT22;16250;49.932;10.980;2022-12-31T07:44:41;11.30;99.90
29211;DHT22;16250;49.932;10.980;2022-12-31T07:47:26;11.40;99.90
29211;DHT22;16250;49.932;10.980;2022-12-31T07:49:53;11.40;99.90
29211;DHT22;16250;49.932;10.980;2022-12-31T07:52:19;11.40;99.90
29211;DHT22;16250;49.932;10.980;2022-12-31T07:54:45;11.40;99.90
29211;DHT22;16250;49.932;10.980;2022-12-31T07:57:12;11.40;99.90
29211;DHT22;16250;49.932;10.980;2022-12-31T08:05:43;11.40;99.90
29211;DHT22;16250;49.932;10.980;2022-12-31T08:08:26;11.50;99.90
29211;DHT22;16250;49.932;10.980;2022-12-31T08:11:03;11.60;99.90
29211;DHT22;16250;49.932;10.980;2022-12-31T08:13:32;11.40;99.90
29211;DHT22;16250;49.932;10.980;2022-12-31T08:15:58;11.60;99.90
29211;DHT22;16250;49.932;10.980;2022-12-31T08:18:25;11.60;99.90
29211;DHT22;16250;49.932;10.980;2022-12-31T08:21:34;11.60;99.90
29211;DHT22;16250;49.932;10.980;2022-12-31T08:24:24;11.60;99.90
29211;DHT22;16250;49.932;10.980;2022-12-31T08:32:16;11.60;99.90
29211;DHT22;16250;49.932;10.980;2022-12-31T08:35:02;11.70;99.90
29211;DHT22;16250;49.932;10.980;2022-12-31T08:37:40;11.70;99.90
29211;DHT22;16250;49.932;10.980;2022-12-31T08:45:50;11.80;99.90
29211;DHT22;16250;49.932;10.980;2022-12-31T08:48:40;11.90;99.90
29211;DHT22;16250;49.932;10.980;2022-12-31T08:51:13;12.00;99.90
29211;DHT22;16250;49.932;10.980;2022-12-31T08:53:39;12.10;99.90
29211;DHT22;16250;49.932;10.980;2022-12-31T08:56:12;12.30;99.90
29211;DHT22;16250;49.932;10.980;2022-12-31T08:58:56;12.40;99.90
29211;DHT22;16250;49.932;10.980;2022-12-31T09:01:27;12.40;99.90
29211;DHT22;16250;49.932;10.980;2022-12-31T09:06:48;12.60;99.90
29211;DHT22;16250;49.932;10.980;2022-12-31T09:09:38;12.70;99.90
29211;DHT22;16250;49.932;10.980;2022-12-31T09:12:23;12.70;99.90
29211;DHT22;16250;49.932;10.980;2022-12-31T09:15:40;12.70;99.90
29211;DHT22;16250;49.932;10.980;2022-12-31T09:18:08;12.90;99.90
29211;DHT22;16250;49.932;10.980;2022-12-31T09:20:36;12.80;99.90
29211;DHT22;16250;49.932;10.980;2022-12-31T09:23:02;12.80;99.90
29211;DHT22;16250;49.932;10.980;2022-12-31T09:25:28;12.90;99.90
29211;DHT22;16250;49.932;10.980;2022-12-31T09:33:14;13.40;99.90
29211;DHT22;16250;49.932;10.980;2022-12-31T09:35:55;13.60;99.90
29211;DHT22;16250;49.932;10.980;2022-12-31T09:38:29;13.60;99.90
29211;DHT22;16250;49.932;10.980;2022-12-31T09:43:57;13.90;99.90
29211;DHT22;16250;49.932;10.980;2022-12-31T09:46:35;13.90;99.90
29211;DHT22;16250;49.932;10.980;2022-12-31T09:49:45;13.90;99.90
29211;DHT22;16250;49.932;10.980;2022-12-31T10:03:28;14.10;99.90
29211;DHT22;16250;49.932;10.980;2022-12-31T10:11:16;14.30;99.90
29211;DHT22;16250;49.932;10.980;2022-12-31T10:14:07;14.30;99.90
29211;DHT22;16250;49.932;10.980;2022-12-31T10:17:10;14.30;99.90
29211;DHT22;16250;49.932;10.980;2022-12-31T10:25:35;14.60;99.90
29211;DHT22;16250;49.932;10.980;2022-12-31T10:31:38;14.70;99.90
29211;DHT22;16250;49.932;10.980;2022-12-31T10:34:20;14.80;99.90
29211;DHT22;16250;49.932;10.980;2022-12-31T10:36:53;14.70;99.90
29211;DHT22;16250;49.932;10.980;2022-12-31T10:42:44;14.80;99.90
29211;DHT22;16250;49.932;10.980;2022-12-31T10:45:29;14.90;99.90
29211;DHT22;16250;49.932;10.980;2022-12-31T10:56:49;14.70;99.90
29211;DHT22;16250;49.932;10.980;2022-12-31T10:59:31;14.80;99.90
29211;DHT22;16250;49.932;10.980;2022-12-31T11:16:36;14.90;99.90
29211;DHT22;16250;49.932;10.980;2022-12-31T11:19:16;14.50;99.90
29211;DHT22;16250;49.932;10.980;2022-12-31T11:25:01;14.50;99.90
29211;DHT22;16250;49.932;10.980;2022-12-31T11:30:48;14.50;99.90
29211;DHT22;16250;49.932;10.980;2022-12-31T11:38:27;14.70;99.90
29211;DHT22;16250;49.932;10.980;2022-12-31T11:41:04;14.80;99.90
29211;DHT22;16250;49.932;10.980;2022-12-31T11:49:54;15.10;99.90
29211;DHT22;16250;49.932;10.980;2022-12-31T11:57:51;15.20;99.90
29211;DHT22;16250;49.932;10.980;2022-12-31T12:00:22;15.10;99.90
29211;DHT22;16250;49.932;10.980;2022-12-31T12:03:06;15.10;99.90
29211;DHT22;16250;49.932;10.980;2022-12-31T12:05:32;15.30;99.90
29211;DHT22;16250;49.932;10.980;2022-12-31T12:08:00;15.40;99.90
29211;DHT22;16250;49.932;10.980;2022-12-31T12:10:31;15.20;99.90
29211;DHT22;16250;49.932;10.980;2022-12-31T12:13:00;15.20;99.90
29211;DHT22;16250;49.932;10.980;2022-12-31T12:15:29;15.20;99.90
29211;DHT22;16250;49.932;10.980;2022-12-31T12:17:57;15.50;99.90
29211;DHT22;16250;49.932;10.980;2022-12-31T12:20:32;15.60;99.90
29211;DHT22;16250;49.932;10.980;2022-12-31T12:23:00;15.50;99.90
29211;DHT22;16250;49.932;10.980;2022-12-31T12:25:39;15.50;99.90
29211;DHT22;16250;49.932;10.980;2022-12-31T12:28:23;15.40;99.90
29211;DHT22;16250;49.932;10.980;2022-12-31T12:31:17;15.40;99.90
29211;DHT22;16250;49.932;10.980;2022-12-31T12:33:45;15.40;99.90
29211;DHT22;16250;49.932;10.980;2022-12-31T12:36:13;15.50;99.90
29211;DHT22;16250;49.932;10.980;2022-12-31T12:38:40;15.40;99.90
29211;DHT22;16250;49.932;10.980;2022-12-31T12:41:11;15.30;99.90
29211;DHT22;16250;49.932;10.980;2022-12-31T12:43:37;15.20;99.90
29211;DHT22;16250;49.932;10.980;2022-12-31T12:46:04;15.30;99.90
29211;DHT22;16250;49.932;10.980;2022-12-31T12:48:34;15.30;99.90
29211;DHT22;16250;49.932;10.980;2022-12-31T12:54:33;15.40;99.90
29211;DHT22;16250;49.932;10.980;2022-12-31T12:57:19;15.40;99.90
29211;DHT22;16250;49.932;10.980;2022-12-31T13:05:02;15.40;99.90
29211;DHT22;16250;49.932;10.980;2022-12-31T13:13:42;15.40;99.90
29211;DHT22;16250;49.932;10.980;2022-12-31T13:19:13;15.30;99.90
29211;DHT22;16250;49.932;10.980;2022-12-31T13:22:01;15.30;99.90
29211;DHT22;16250;49.932;10.980;2022-12-31T13:24:45;15.30;99.90
29211;DHT22;16250;49.932;10.980;2022-12-31T13:27:33;15.50;99.90
29211;DHT22;16250;49.932;10.980;2022-12-31T13:30:02;15.60;99.90
29211;DHT22;16250;49.932;10.980;2022-12-31T13:32:39;15.50;99.90
29211;DHT22;16250;49.932;10.980;2022-12-31T13:35:28;15.50;99.90
29211;DHT22;16250;49.932;10.980;2022-12-31T13:41:25;15.50;99.90
29211;DHT22;16250;49.932;10.980;2022-12-31T13:46:51;15.40;99.90
29211;DHT22;16250;49.932;10.980;2022-12-31T13:50:14;15.20;99.90
29211;DHT22;16250;49.932;10.980;2022-12-31T13:52:39;15.10;99.90
29211;DHT22;16250;49.932;10.980;2022-12-31T13:55:25;15.10;99.90
29211;DHT22;16250;49.932;10.980;2022-12-31T14:00:39;15.00;99.90
29211;DHT22;16250;49.932;10.980;2022-12-31T14:03:37;15.00;99.90
29211;DHT22;16250;49.932;10.980;2022-12-31T14:08:51;15.10;99.90
29211;DHT22;16250;49.932;10.980;2022-12-31T14:16:50;15.00;99.90
29211;DHT22;16250;49.932;10.980;2022-12-31T14:24:48;14.70;99.90
29211;DHT22;16250;49.932;10.980;2022-12-31T14:27:35;14.70;99.90
29211;DHT22;16250;49.932;10.980;2022-12-31T14:30:03;14.70;99.90
29211;DHT22;16250;49.932;10.980;2022-12-31T14:38:23;14.60;99.90
29211;DHT22;16250;49.932;10.980;2022-12-31T14:47:02;14.50;99.90
29211;DHT22;16250;49.932;10.980;2022-12-31T14:54:41;14.40;99.90
29211;DHT22;16250;49.932;10.980;2022-12-31T14:57:23;14.30;99.90
29211;DHT22;16250;49.932;10.980;2022-12-31T14:59:57;14.20;99.90
29211;DHT22;16250;49.932;10.980;2022-12-31T15:02:33;14.10;99.90
29211;DHT22;16250;49.932;10.980;2022-12-31T15:18:10;13.70;99.90
29211;DHT22;16250;49.932;10.980;2022-12-31T15:23:41;13.60;99.90
29211;DHT22;16250;49.932;10.980;2022-12-31T15:26:28;13.60;99.90
29211;DHT22;16250;49.932;10.980;2022-12-31T15:29:07;13.50;99.90
29211;DHT22;16250;49.932;10.980;2022-12-31T15:31:45;13.50;99.90
29211;DHT22;16250;49.932;10.980;2022-12-31T15:34:33;13.50;99.90
29211;DHT22;16250;49.932;10.980;2022-12-31T15:37:02;13.40;99.90
29211;DHT22;16250;49.932;10.980;2022-12-31T15:41:58;13.50;99.90
29211;DHT22;16250;49.932;10.980;2022-12-31T15:44:44;13.40;99.90
29211;DHT22;16250;49.932;10.980;2022-12-31T15:47:26;13.40;99.90
29211;DHT22;16250;49.932;10.980;2022-12-31T15:49:53;13.40;99.90
29211;DHT22;16250;49.932;10.980;2022-12-31T15:52:24;13.30;99.90
29211;DHT22;16250;49.932;10.980;2022-12-31T15:54:53;13.20;99.90
29211;DHT22;16250;49.932;10.980;2022-12-31T15:57:59;13.20;99.90
29211;DHT22;16250;49.932;10.980;2022-12-31T16:00:20;13.20;99.90
29211;DHT22;16250;49.932;10.980;2022-12-31T16:02:47;13.10;99.90
29211;DHT22;16250;49.932;10.980;2022-12-31T16:07:42;13.10;99.90
29211;DHT22;16250;49.932;10.980;2022-12-31T16:10:08;13.20;99.90
29211;DHT22;16250;49.932;10.980;2022-12-31T16:12:34;13.10;99.90
29211;DHT22;16250;49.932;10.980;2022-12-31T16:15:02;13.10;99.90
29211;DHT22;16250;49.932;10.980;2022-12-31T16:17:30;13.10;99.90
29211;DHT22;16250;49.932;10.980;2022-12-31T16:19:56;13.00;99.90
29211;DHT22;16250;49.932;10.980;2022-12-31T16:22:34;12.90;99.90
29211;DHT22;16250;49.932;10.980;2022-12-31T16:25:00;13.00;99.90
29211;DHT22;16250;49.932;10.980;2022-12-31T16:27:28;12.90;99.90
29211;DHT22;16250;49.932;10.980;2022-12-31T16:29:59;12.90;99.90
29211;DHT22;16250;49.932;10.980;2022-12-31T16:32:38;12.80;99.90
29211;DHT22;16250;49.932;10.980;2022-12-31T16:35:31;12.80;99.90
29211;DHT22;16250;49.932;10.980;2022-12-31T16:40:35;12.80;99.90
29211;DHT22;16250;49.932;10.980;2022-12-31T16:43:01;12.80;99.90
29211;DHT22;16250;49.932;10.980;2022-12-31T16:47:56;12.60;99.90
29211;DHT22;16250;49.932;10.980;2022-12-31T16:50:23;12.70;99.90
29211;DHT22;16250;49.932;10.980;2022-12-31T16:52:56;12.80;99.90
29211;DHT22;16250;49.932;10.980;2022-12-31T16:55:25;12.80;99.90
29211;DHT22;16250;49.932;10.980;2022-12-31T16:58:10;12.70;99.90
29211;DHT22;16250;49.932;10.980;2022-12-31T17:00:37;12.90;99.90
29211;DHT22;16250;49.932;10.980;2022-12-31T17:03:09;12.90;99.90
29211;DHT22;16250;49.932;10.980;2022-12-31T17:05:55;12.80;99.90
29211;DHT22;16250;49.932;10.980;2022-12-31T17:08:25;12.70;99.90
29211;DHT22;16250;49.932;10.980;2022-12-31T17:10:50;12.70;99.90
29211;DHT22;16250;49.932;10.980;2022-12-31T17:13:33;12.60;99.90
29211;DHT22;16250;49.932;10.980;2022-12-31T17:15:59;12.70;99.90
29211;DHT22;16250;49.932;10.980;2022-12-31T17:18:32;12.70;99.90
29211;DHT22;16250;49.932;10.980;2022-12-31T17:21:05;12.70;99.90
29211;DHT22;16250;49.932;10.980;2022-12-31T17:23:33;12.70;99.90
29211;DHT22;16250;49.932;10.980;2022-12-31T17:26:13;12.70;99.90
29211;DHT22;16250;49.932;10.980;2022-12-31T17:28:50;12.60;99.90
29211;DHT22;16250;49.932;10.980;2022-12-31T17:31:32;12.60;99.90
29211;DHT22;16250;49.932;10.980;2022-12-31T17:39:17;12.70;99.90
29211;DHT22;16250;49.932;10.980;2022-12-31T17:41:44;12.60;99.90
29211;DHT22;16250;49.932;10.980;2022-12-31T17:44:16;12.60;99.90
29211;DHT22;16250;49.932;10.980;2022-12-31T17:46:43;12.50;99.90
29211;DHT22;16250;49.932;10.980;2022-12-31T17:49:11;12.50;99.90
29211;DHT22;16250;49.932;10.980;2022-12-31T17:51:38;12.50;99.90
29211;DHT22;16250;49.932;10.980;2022-12-31T17:54:14;12.40;99.90
29211;DHT22;16250;49.932;10.980;2022-12-31T17:56:40;12.40;99.90
29211;DHT22;16250;49.932;10.980;2022-12-31T17:59:06;12.30;99.90
29211;DHT22;16250;49.932;10.980;2022-12-31T18:01:32;12.40;99.90
29211;DHT22;16250;49.932;10.980;2022-12-31T18:03:58;12.30;99.90
29211;DHT22;16250;49.932;10.980;2022-12-31T18:06:23;12.40;99.90
29211;DHT22;16250;49.932;10.980;2022-12-31T18:08:50;12.30;99.90
29211;DHT22;16250;49.932;10.980;2022-12-31T18:11:19;12.30;99.90
29211;DHT22;16250;49.932;10.980;2022-12-31T18:13:45;12.40;99.90
29211;DHT22;16250;49.932;10.980;2022-12-31T18:16:14;12.40;99.90
29211;DHT22;16250;49.932;10.980;2022-12-31T18:18:40;12.40;99.90
29211;DHT22;16250;49.932;10.980;2022-12-31T18:21:12;12.40;99.90
29211;DHT22;16250;49.932;10.980;2022-12-31T18:23:41;12.30;99.90
29211;DHT22;16250;49.932;10.980;2022-12-31T18:26:15;12.30;99.90
29211;DHT22;16250;49.932;10.980;2022-12-31T18:28:41;12.30;99.90
29211;DHT22;16250;49.932;10.980;2022-12-31T18:31:20;12.30;99.90
29211;DHT22;16250;49.932;10.980;2022-12-31T18:33:48;12.20;99.90
29211;DHT22;16250;49.932;10.980;2022-12-31T18:36:15;12.30;99.90
29211;DHT22;16250;49.932;10.980;2022-12-31T18:38:41;12.30;99.90
29211;DHT22;16250;49.932;10.980;2022-12-31T18:41:18;12.20;99.90
29211;DHT22;16250;49.932;10.980;2022-12-31T18:43:45;12.20;99.90
29211;DHT22;16250;49.932;10.980;2022-12-31T18:46:17;12.20;99.90
29211;DHT22;16250;49.932;10.980;2022-12-31T18:48:43;12.20;99.90
29211;DHT22;16250;49.932;10.980;2022-12-31T18:51:19;12.10;99.90
29211;DHT22;16250;49.932;10.980;2022-12-31T18:53:45;12.10;99.90
29211;DHT22;16250;49.932;10.980;2022-12-31T18:56:13;12.10;99.90
29211;DHT22;16250;49.932;10.980;2022-12-31T18:58:39;12.20;99.90
29211;DHT22;16250;49.932;10.980;2022-12-31T19:01:08;12.10;99.90
29211;DHT22;16250;49.932;10.980;2022-12-31T19:03:40;12.10;99.90
29211;DHT22;16250;49.932;10.980;2022-12-31T19:06:07;12.10;99.90
29211;DHT22;16250;49.932;10.980;2022-12-31T19:08:33;12.10;99.90
29211;DHT22;16250;49.932;10.980;2022-12-31T19:10:58;12.10;99.90
29211;DHT22;16250;49.932;10.980;2022-12-31T19:13:25;12.00;99.90
29211;DHT22;16250;49.932;10.980;2022-12-31T19:15:51;12.10;99.90
29211;DHT22;16250;49.932;10.980;2022-12-31T19:18:18;12.10;99.90
29211;DHT22;16250;49.932;10.980;2022-12-31T19:20:44;12.10;99.90
29211;DHT22;16250;49.932;10.980;2022-12-31T19:23:16;12.00;99.90
29211;DHT22;16250;49.932;10.980;2022-12-31T19:25:43;12.00;99.90
29211;DHT22;16250;49.932;10.980;2022-12-31T19:28:22;12.00;99.90
29211;DHT22;16250;49.932;10.980;2022-12-31T19:30:49;12.20;99.90
29211;DHT22;16250;49.932;10.980;2022-12-31T19:33:15;12.00;99.90
29211;DHT22;16250;49.932;10.980;2022-12-31T19:35:41;12.00;99.90
29211;DHT22;16250;49.932;10.980;2022-12-31T19:38:34;11.90;99.90
29211;DHT22;16250;49.932;10.980;2022-12-31T19:41:00;11.90;99.90